createdAt,value
2023-01-02T00:01:21.935Z,77.07
2023-01-02T00:03:49.168Z,78.80
2023-01-02T00:06:18.124Z,78.72
2023-01-02T00:08:45.507Z,79.60
2023-01-02T00:11:12.783Z,78.43
2023-01-02T00:13:40.071Z,79.22
2023-01-02T00:16:08.965Z,79.55
2023-01-02T00:18:36.210Z,84.22
2023-01-02T00:21:06.020Z,85.50
2023-01-02T00:23:33.875Z,79.78
2023-01-02T00:26:01.136Z,79.32
2023-01-02T00:28:29.244Z,77.90
2023-01-02T00:30:57.379Z,77.13
2023-01-02T00:33:24.686Z,72.45
2023-01-02T00:35:51.956Z,74.43
2023-01-02T00:38:19.387Z,75.78
2023-01-02T00:40:46.557Z,76.20
2023-01-02T00:43:13.807Z,86.55
2023-01-02T00:45:40.975Z,103.50
2023-01-02T00:48:08.123Z,97.72
2023-01-02T00:50:36.682Z,107.70
2023-01-02T00:53:03.810Z,98.43
2023-01-02T00:55:32.224Z,100.85
2023-01-02T00:57:59.403Z,100.38
2023-01-02T01:00:26.652Z,107.63
2023-01-02T01:03:00.844Z,108.72
2023-01-02T01:05:29.456Z,105.03
2023-01-02T01:07:58.102Z,114.30
2023-01-02T01:10:26.672Z,119.47
2023-01-02T01:12:53.937Z,117.30
2023-01-02T01:15:21.272Z,117.82
2023-01-02T01:17:48.848Z,108.25
2023-01-02T01:20:16.170Z,121.68
2023-01-02T01:22:43.446Z,104.18
2023-01-02T01:25:10.678Z,114.28
2023-01-02T01:27:38.361Z,117.95
2023-01-02T01:30:07.313Z,107.97
2023-01-02T01:32:35.039Z,117.18
2023-01-02T01:35:02.498Z,113.47
2023-01-02T01:37:29.720Z,111.10
2023-01-02T01:39:57.210Z,102.55
2023-01-02T01:42:24.504Z,110.63
2023-01-02T01:44:54.898Z,113.32
2023-01-02T01:47:42.404Z,110.03
2023-01-02T01:50:18.969Z,113.88
2023-01-02T01:53:08.586Z,116.32
2023-01-02T01:55:43.783Z,119.43
2023-01-02T01:58:29.213Z,106.93
2023-01-02T02:00:56.869Z,111.38
2023-01-02T02:03:29.304Z,112.63
2023-01-02T02:05:59.669Z,110.57
2023-01-02T02:08:49.071Z,103.78
2023-01-02T02:11:17.479Z,105.85
2023-01-02T02:13:45.112Z,103.57
2023-01-02T02:16:18.488Z,107.90
2023-01-02T02:19:35.057Z,113.53
2023-01-02T02:22:49.271Z,116.53
2023-01-02T02:25:50.826Z,114.78
2023-01-02T02:29:05.805Z,113.55
2023-01-02T02:31:48.961Z,117.85
2023-01-02T02:34:29.543Z,109.80
2023-01-02T02:37:18.083Z,121.35
2023-01-02T02:40:03.520Z,128.38
2023-01-02T02:43:11.465Z,119.60
2023-01-02T02:46:12.771Z,119.78
2023-01-02T02:49:36.700Z,130.85
2023-01-02T02:52:27.762Z,135.38
2023-01-02T02:55:32.388Z,129.77
2023-01-02T02:58:01.493Z,131.68
2023-01-02T03:00:28.687Z,139.02
2023-01-02T03:02:56.788Z,139.05
2023-01-02T03:06:09.439Z,147.80
2023-01-02T03:09:33.924Z,138.10
2023-01-02T03:12:43.527Z,146.27
2023-01-02T03:15:32.581Z,139.65
2023-01-02T03:18:17.909Z,150.25
2023-01-02T03:21:03.000Z,142.90
2023-01-02T03:23:37.191Z,160.10
2023-01-02T03:26:05.345Z,158.48
2023-01-02T03:28:34.947Z,157.18
2023-01-02T03:31:04.929Z,147.70
2023-01-02T03:33:39.955Z,174.52
2023-01-02T03:36:17.323Z,175.98
2023-01-02T03:38:57.427Z,172.85
2023-01-02T03:41:33.920Z,144.70
2023-01-02T03:44:03.286Z,154.25
2023-01-02T03:47:05.627Z,147.02
2023-01-02T03:49:42.243Z,146.75
2023-01-02T03:52:09.610Z,143.65
2023-01-02T03:54:38.918Z,159.50
2023-01-02T03:57:59.619Z,195.60
2023-01-02T04:00:52.873Z,192.15
2023-01-02T04:04:18.019Z,171.63
2023-01-02T04:07:13.332Z,210.90
2023-01-02T04:09:45.629Z,163.85
2023-01-02T04:12:20.424Z,173.20
2023-01-02T04:15:01.317Z,160.63
2023-01-02T04:17:58.418Z,183.18
2023-01-02T04:20:40.832Z,171.63
2023-01-02T04:23:20.833Z,175.52
2023-01-02T04:26:31.813Z,167.85
2023-01-02T04:29:03.259Z,212.88
2023-01-02T04:32:08.494Z,187.75
2023-01-02T04:34:40.782Z,213.65
2023-01-02T04:37:12.223Z,188.05
2023-01-02T04:39:39.744Z,196.70
2023-01-02T04:42:07.278Z,182.88
2023-01-02T04:44:37.501Z,174.50
2023-01-02T04:47:05.155Z,156.82
2023-01-02T04:49:32.927Z,248.73
2023-01-02T04:52:03.618Z,190.23
2023-01-02T04:54:34.531Z,153.18
2023-01-02T04:57:19.898Z,159.05
2023-01-02T04:59:47.033Z,268.67
2023-01-02T05:02:14.356Z,215.52
2023-01-02T05:04:41.558Z,202.20
2023-01-02T05:07:08.819Z,165.85
2023-01-02T05:09:35.980Z,172.52
2023-01-02T05:12:03.273Z,275.40
2023-01-02T05:14:31.187Z,211.43
2023-01-02T05:16:58.416Z,210.60
2023-01-02T05:19:25.618Z,164.52
2023-01-02T05:22:11.571Z,165.23
2023-01-02T05:24:38.715Z,168.07
2023-01-02T05:27:05.876Z,160.95
2023-01-02T05:29:33.092Z,161.07
2023-01-02T05:32:00.310Z,268.02
2023-01-02T05:34:27.595Z,163.63
2023-01-02T05:36:54.760Z,191.32
2023-01-02T05:39:22.001Z,364.65
2023-01-02T05:41:49.195Z,196.60
2023-01-02T05:44:16.483Z,207.23
2023-01-02T05:46:44.646Z,176.93
2023-01-02T05:49:12.242Z,173.73
2023-01-02T05:51:39.605Z,169.98
2023-01-02T05:54:07.666Z,214.45
2023-01-02T05:56:34.918Z,282.40
2023-01-02T05:59:02.147Z,168.35
2023-01-02T06:01:30.434Z,183.38
2023-01-02T06:04:00.729Z,242.55
2023-01-02T06:06:41.037Z,162.23
2023-01-02T06:09:13.169Z,224.25
2023-01-02T06:11:40.658Z,199.60
2023-01-02T06:14:11.712Z,336.13
2023-01-02T06:16:40.122Z,197.13
2023-01-02T06:19:07.663Z,180.45
2023-01-02T06:21:34.954Z,213.40
2023-01-02T06:24:02.296Z,206.65
2023-01-02T06:26:34.898Z,301.33
2023-01-02T06:29:03.692Z,209.85
2023-01-02T06:31:33.334Z,177.20
2023-01-02T06:34:03.268Z,172.93
2023-01-02T06:36:33.947Z,194.63
2023-01-02T06:39:01.797Z,186.57
2023-01-02T06:41:29.191Z,190.23
2023-01-02T06:43:56.476Z,174.43
2023-01-02T06:46:24.500Z,222.07
2023-01-02T06:48:52.330Z,173.68
2023-01-02T06:51:23.503Z,182.02
2023-01-02T06:53:51.199Z,178.40
2023-01-02T06:56:20.332Z,223.02
2023-01-02T06:58:47.913Z,169.50
2023-01-02T07:01:19.895Z,183.38
2023-01-02T07:03:47.100Z,178.68
2023-01-02T07:06:19.751Z,184.65
2023-01-02T07:08:47.479Z,221.10
2023-01-02T07:11:24.603Z,166.00
2023-01-02T07:13:54.720Z,181.77
2023-01-02T07:16:24.234Z,195.50
2023-01-02T07:18:54.874Z,165.57
2023-01-02T07:21:22.336Z,176.63
2023-01-02T07:23:49.859Z,173.43
2023-01-02T07:26:17.192Z,193.95
2023-01-02T07:28:45.688Z,164.35
2023-01-02T07:31:17.630Z,163.48
2023-01-02T07:33:45.454Z,162.45
2023-01-02T07:36:17.791Z,159.05
2023-01-02T07:38:45.233Z,164.38
2023-01-02T07:41:19.275Z,172.63
2023-01-02T07:43:47.656Z,180.48
2023-01-02T07:46:19.319Z,168.43
2023-01-02T07:48:47.555Z,155.23
2023-01-02T07:51:17.394Z,171.43
2023-01-02T07:53:48.346Z,171.98
2023-01-02T07:56:15.578Z,164.07
2023-01-02T07:58:42.825Z,167.38
2023-01-02T08:01:13.199Z,164.93
2023-01-02T08:03:41.074Z,168.60
2023-01-02T08:06:16.152Z,166.95
2023-01-02T08:08:44.306Z,171.05
2023-01-02T08:11:17.661Z,161.85
2023-01-02T08:13:45.072Z,159.05
2023-01-02T08:16:19.230Z,171.27
2023-01-02T08:18:47.418Z,174.13
2023-01-02T08:21:15.107Z,151.23
2023-01-02T08:23:42.336Z,170.68
2023-01-02T08:26:11.319Z,183.57
2023-01-02T08:28:40.827Z,152.43
2023-01-02T08:31:20.330Z,160.70
2023-01-02T08:33:48.909Z,178.07
2023-01-02T08:36:16.376Z,162.18
2023-01-02T08:38:43.926Z,143.98
2023-01-02T08:41:11.128Z,149.13
2023-01-02T08:43:38.644Z,135.02
2023-01-02T08:46:08.971Z,145.82
2023-01-02T08:48:36.693Z,141.15
2023-01-02T08:51:04.958Z,140.73
2023-01-02T08:53:32.513Z,130.55
2023-01-02T08:56:28.638Z,127.35
2023-01-02T08:59:01.280Z,143.20
2023-01-02T09:01:30.822Z,146.73
2023-01-02T09:03:59.749Z,130.85
2023-01-02T09:06:30.797Z,129.82
2023-01-02T09:09:01.417Z,128.25
2023-01-02T09:11:36.427Z,128.98
2023-01-02T09:14:05.419Z,139.57
2023-01-02T09:16:33.729Z,124.13
2023-01-02T09:19:02.440Z,120.50
2023-01-02T09:21:30.384Z,109.95
2023-01-02T09:23:57.727Z,118.80
2023-01-02T09:26:25.303Z,110.47
2023-01-02T09:28:52.819Z,108.70
2023-01-02T09:31:20.867Z,110.82
2023-01-02T09:33:48.830Z,98.75
2023-01-02T09:36:19.337Z,92.72
2023-01-02T09:38:55.648Z,102.07
2023-01-02T09:41:58.996Z,95.18
2023-01-02T09:44:47.034Z,100.63
2023-01-02T09:47:24.033Z,103.85
2023-01-02T09:50:11.327Z,106.45
2023-01-02T09:52:48.963Z,95.03
2023-01-02T09:55:35.745Z,95.38
2023-01-02T09:58:28.576Z,102.32
2023-01-02T10:00:56.624Z,98.40
2023-01-02T10:04:33.217Z,89.88
2023-01-02T10:07:10.825Z,92.20
2023-01-02T10:09:56.694Z,90.85
2023-01-02T10:12:41.080Z,92.18
2023-01-02T10:15:27.610Z,87.32
2023-01-02T10:18:10.299Z,86.78
2023-01-02T10:20:43.282Z,89.72
2023-01-02T10:23:22.614Z,86.40
2023-01-02T10:26:01.581Z,80.22
2023-01-02T10:29:16.906Z,80.35
2023-01-02T10:32:02.705Z,75.72
2023-01-02T10:35:06.205Z,75.93
2023-01-02T10:37:35.611Z,72.55
2023-01-02T10:40:04.659Z,71.97
2023-01-02T10:42:33.932Z,68.57
2023-01-02T10:45:01.445Z,64.93
2023-01-02T10:47:40.945Z,68.18
2023-01-02T10:50:39.010Z,68.57
2023-01-02T10:53:31.044Z,74.32
2023-01-02T10:56:19.729Z,69.85
2023-01-02T10:58:50.589Z,71.90
2023-01-02T11:01:22.138Z,63.15
2023-01-02T11:04:12.896Z,62.33
2023-01-02T11:06:59.229Z,64.15
2023-01-02T11:09:36.427Z,57.58
2023-01-02T11:12:14.079Z,64.03
2023-01-02T11:14:41.427Z,64.72
2023-01-02T11:17:20.695Z,66.28
2023-01-02T11:19:56.833Z,63.50
2023-01-02T11:22:36.330Z,59.95
2023-01-02T11:25:20.794Z,63.20
2023-01-02T11:27:48.355Z,59.90
2023-01-02T11:30:47.185Z,59.45
2023-01-02T11:33:14.308Z,57.88
2023-01-02T11:36:12.719Z,61.80
2023-01-02T11:38:56.738Z,63.03
2023-01-02T11:42:13.444Z,67.95
2023-01-02T11:45:09.764Z,62.47
2023-01-02T11:47:44.412Z,61.25
2023-01-02T11:50:31.781Z,60.42
2023-01-02T11:53:11.802Z,64.63
2023-01-02T11:55:51.928Z,63.15
2023-01-02T11:58:33.611Z,63.00
2023-01-02T12:01:39.397Z,61.33
2023-01-02T12:04:06.920Z,64.18
2023-01-02T12:07:02.945Z,60.47
2023-01-02T12:10:16.835Z,64.90
2023-01-02T12:13:25.026Z,62.08
2023-01-02T12:16:34.337Z,61.80
2023-01-02T12:20:17.704Z,68.05
2023-01-02T12:22:59.130Z,65.07
2023-01-02T12:25:47.129Z,67.97
2023-01-02T12:29:45.967Z,57.88
2023-01-02T12:32:45.231Z,60.40
2023-01-02T12:35:41.230Z,61.78
2023-01-02T12:38:11.161Z,60.65
2023-01-02T12:41:28.914Z,56.25
2023-01-02T12:44:35.229Z,54.55
2023-01-02T12:47:31.906Z,56.78
2023-01-02T12:50:33.223Z,56.65
2023-01-02T12:53:25.686Z,61.92
2023-01-02T12:55:58.413Z,53.77
2023-01-02T12:59:04.136Z,62.50
2023-01-02T13:01:54.862Z,55.40
2023-01-02T13:04:43.550Z,56.17
2023-01-02T13:07:27.238Z,49.67
2023-01-02T13:09:57.796Z,52.47
2023-01-02T13:12:29.472Z,58.38
2023-01-02T13:15:03.899Z,50.42
2023-01-02T13:18:30.367Z,58.03
2023-01-02T13:21:39.789Z,51.20
2023-01-02T13:24:11.916Z,51.85
2023-01-02T13:26:39.885Z,48.20
2023-01-02T13:29:09.971Z,49.63
2023-01-02T13:31:49.177Z,49.55
2023-01-02T13:34:26.724Z,48.38
2023-01-02T13:37:05.545Z,46.65
2023-01-02T13:39:43.572Z,49.83
2023-01-02T13:42:51.381Z,43.22
2023-01-02T13:45:37.524Z,41.33
2023-01-02T13:48:38.486Z,47.90
2023-01-02T13:51:23.468Z,47.08
2023-01-02T13:53:53.227Z,50.90
2023-01-02T13:56:25.887Z,49.67
2023-01-02T13:59:41.902Z,50.70
2023-01-02T14:02:20.995Z,45.67
2023-01-02T14:04:48.462Z,45.88
2023-01-02T14:07:29.442Z,40.78
2023-01-02T14:10:19.697Z,44.05
2023-01-02T14:13:07.658Z,43.92
2023-01-02T14:16:12.576Z,43.78
2023-01-02T14:18:46.075Z,49.25
2023-01-02T14:21:17.921Z,48.60
2023-01-02T14:24:17.277Z,51.00
2023-01-02T14:26:39.923Z,54.72
2023-01-02T14:29:16.523Z,51.67
2023-01-02T14:31:44.140Z,56.53
2023-01-02T14:34:22.652Z,58.03
2023-01-02T14:36:51.502Z,51.47
2023-01-02T14:39:33.560Z,49.50
2023-01-02T14:42:41.283Z,55.33
2023-01-02T14:45:18.017Z,58.20
2023-01-02T14:48:00.491Z,53.72
2023-01-02T14:50:33.615Z,61.17
2023-01-02T14:53:37.315Z,59.22
2023-01-02T14:56:18.994Z,59.53
2023-01-02T14:58:49.211Z,59.35
2023-01-02T15:01:43.096Z,58.60
2023-01-02T15:04:38.806Z,57.63
2023-01-02T15:07:33.560Z,56.95
2023-01-02T15:10:26.899Z,56.15
2023-01-02T15:13:04.184Z,58.75
2023-01-02T15:15:49.917Z,63.28
2023-01-02T15:18:32.748Z,55.67
2023-01-02T15:21:26.265Z,58.22
2023-01-02T15:23:54.632Z,73.00
2023-01-02T15:26:34.791Z,67.65
2023-01-02T15:29:21.188Z,65.65
2023-01-02T15:32:00.440Z,64.43
2023-01-02T15:34:32.903Z,61.83
2023-01-02T15:37:07.500Z,57.00
2023-01-02T15:39:40.333Z,55.78
2023-01-02T15:42:49.763Z,54.78
2023-01-02T15:45:17.806Z,53.45
2023-01-02T15:47:50.239Z,56.47
2023-01-02T15:50:28.269Z,56.28
2023-01-02T15:53:02.909Z,52.05
2023-01-02T15:55:41.493Z,54.45
2023-01-02T15:58:17.598Z,55.88
2023-01-02T16:00:46.377Z,51.13
2023-01-02T16:04:02.152Z,48.80
2023-01-02T16:06:42.631Z,51.13
2023-01-02T16:09:28.258Z,52.88
2023-01-02T16:12:03.205Z,57.75
2023-01-02T16:14:39.653Z,55.08
2023-01-02T16:17:28.867Z,58.42
2023-01-02T16:20:07.723Z,58.28
2023-01-02T16:23:07.775Z,55.83
2023-01-02T16:25:43.951Z,59.45
2023-01-02T16:28:34.782Z,58.67
2023-01-02T16:31:18.235Z,57.75
2023-01-02T16:33:46.553Z,60.65
2023-01-02T16:36:28.896Z,57.28
2023-01-02T16:39:02.471Z,55.65
2023-01-02T16:41:38.132Z,60.30
2023-01-02T16:46:50.351Z,54.05
2023-01-02T16:49:22.370Z,52.08
2023-01-02T16:51:53.537Z,56.15
2023-01-02T16:54:20.980Z,56.65
2023-01-02T16:56:49.991Z,60.33
2023-01-02T16:59:17.260Z,63.95
2023-01-02T17:01:44.683Z,62.90
2023-01-02T17:04:13.995Z,61.83
2023-01-02T17:06:41.257Z,67.80
2023-01-02T17:09:08.390Z,78.13
2023-01-02T17:11:37.318Z,67.45
2023-01-02T17:14:08.007Z,70.38
2023-01-02T17:16:37.609Z,73.15
2023-01-02T17:19:04.967Z,72.13
2023-01-02T17:21:33.071Z,71.80
2023-01-02T17:24:26.389Z,71.88
2023-01-02T17:26:53.915Z,69.85
2023-01-02T17:29:23.029Z,71.20
2023-01-02T17:31:52.883Z,74.07
2023-01-02T17:34:28.664Z,75.15
2023-01-02T17:36:57.068Z,77.97
2023-01-02T17:39:25.634Z,75.50
2023-01-02T17:41:52.890Z,81.45
2023-01-02T17:44:20.417Z,73.55
2023-01-02T17:47:38.863Z,74.20
2023-01-02T17:49:41.316Z,77.03
2023-01-02T17:52:09.948Z,76.15
2023-01-02T17:54:37.209Z,79.07
2023-01-02T17:57:04.804Z,73.80
2023-01-02T17:59:34.120Z,83.65
2023-01-02T18:02:02.009Z,76.80
2023-01-02T18:04:29.848Z,78.95
2023-01-02T18:06:57.133Z,83.95
2023-01-02T18:09:32.729Z,82.75
2023-01-02T18:12:00.155Z,74.82
2023-01-02T18:14:28.334Z,79.70
2023-01-02T18:16:59.765Z,78.50
2023-01-02T18:19:36.604Z,85.60
2023-01-02T18:22:15.686Z,79.07
2023-01-02T18:24:49.888Z,77.72
2023-01-02T18:27:34.989Z,78.65
2023-01-02T18:30:18.540Z,75.95
2023-01-02T18:33:13.709Z,73.90
2023-01-02T18:35:58.536Z,76.15
2023-01-02T18:38:39.545Z,76.70
2023-01-02T18:41:24.641Z,79.07
2023-01-02T18:44:37.497Z,74.20
2023-01-02T18:47:32.418Z,70.65
2023-01-02T18:53:27.362Z,71.80
2023-01-02T18:56:02.423Z,77.35
2023-01-02T18:58:43.917Z,82.20
2023-01-02T19:01:30.495Z,80.47
2023-01-02T19:04:16.585Z,74.10
2023-01-02T19:06:54.608Z,79.25
2023-01-02T19:09:35.280Z,82.43
2023-01-02T19:13:07.329Z,80.85
2023-01-02T19:15:56.550Z,76.60
2023-01-02T19:18:49.439Z,85.47
2023-01-02T19:21:31.678Z,86.45
2023-01-02T19:24:04.950Z,80.75
2023-01-02T19:26:44.934Z,83.88
2023-01-02T19:29:23.900Z,104.13
2023-01-02T19:32:29.183Z,94.93
2023-01-02T19:35:09.002Z,88.18
2023-01-02T19:37:40.784Z,87.18
2023-01-02T19:40:23.013Z,84.80
2023-01-02T19:42:53.171Z,87.47
2023-01-02T19:45:28.057Z,91.60
2023-01-02T19:47:55.389Z,94.38
2023-01-02T19:50:26.907Z,112.15
2023-01-02T19:52:54.425Z,101.82
2023-01-02T19:55:21.794Z,102.28
2023-01-02T19:57:49.050Z,92.32
2023-01-02T20:00:19.437Z,93.50
2023-01-02T20:02:49.709Z,98.40
2023-01-02T20:05:21.771Z,104.35
2023-01-02T20:07:52.661Z,103.60
2023-01-02T20:10:21.583Z,98.40
2023-01-02T20:12:48.975Z,91.95
2023-01-02T20:15:21.039Z,99.53
2023-01-02T20:17:48.377Z,110.43
2023-01-02T20:20:20.328Z,113.75
2023-01-02T20:22:51.149Z,109.40
2023-01-02T20:25:23.751Z,106.53
2023-01-02T20:27:55.869Z,96.57
2023-01-02T20:30:25.434Z,95.05
2023-01-02T20:32:55.902Z,99.53
2023-01-02T20:35:23.657Z,96.22
2023-01-02T20:37:51.025Z,97.25
2023-01-02T20:40:18.328Z,89.35
2023-01-02T20:42:45.547Z,90.47
2023-01-02T20:45:13.139Z,96.47
2023-01-02T20:47:40.488Z,98.00
2023-01-02T20:50:08.609Z,104.93
2023-01-02T20:52:35.896Z,98.45
2023-01-02T20:55:03.357Z,91.95
2023-01-02T20:57:30.749Z,141.82
2023-01-02T20:59:57.975Z,132.95
2023-01-02T21:02:26.361Z,157.68
2023-01-02T21:04:53.850Z,119.55
2023-01-02T21:07:21.709Z,100.25
2023-01-02T21:09:48.902Z,86.68
2023-01-02T21:12:51.354Z,77.25
2023-01-02T21:15:37.202Z,77.35
2023-01-02T21:18:04.699Z,77.78
2023-01-02T21:20:31.870Z,78.43
2023-01-02T21:22:59.525Z,67.55
2023-01-02T21:25:30.468Z,64.50
2023-01-02T21:28:06.723Z,57.72
2023-01-02T21:30:34.813Z,55.97
2023-01-02T21:33:02.101Z,59.85
2023-01-02T21:35:29.803Z,57.22
2023-01-02T21:37:57.103Z,57.15
2023-01-02T21:40:24.977Z,58.28
2023-01-02T21:42:52.217Z,52.47
2023-01-02T21:45:20.796Z,51.17
2023-01-02T21:47:49.053Z,50.42
2023-01-02T21:50:16.497Z,45.65
2023-01-02T21:52:43.962Z,44.10
2023-01-02T21:55:17.783Z,49.75
2023-01-02T21:58:13.017Z,46.20
2023-01-02T22:00:45.978Z,53.50
2023-01-02T22:03:13.647Z,46.60
2023-01-02T22:05:41.576Z,50.67
2023-01-02T22:08:09.045Z,44.05
2023-01-02T22:10:37.388Z,53.13
2023-01-02T22:13:04.812Z,51.78
2023-01-02T22:15:32.219Z,51.20
2023-01-02T22:18:00.105Z,58.28
2023-01-02T22:20:27.585Z,50.35
2023-01-02T22:23:03.609Z,56.13
2023-01-02T22:25:31.928Z,63.03
2023-01-02T22:28:00.207Z,56.90
2023-01-02T22:30:35.173Z,50.55
2023-01-02T22:33:03.437Z,53.25
2023-01-02T22:35:32.749Z,60.13
2023-01-02T22:38:01.615Z,52.33
2023-01-02T22:40:33.132Z,56.28
2023-01-02T22:43:05.224Z,55.65
2023-01-02T22:45:53.634Z,53.72
2023-01-02T22:48:49.842Z,58.15
2023-01-02T22:51:22.851Z,64.78
2023-01-02T22:53:58.828Z,61.35
2023-01-02T22:56:35.351Z,80.65
2023-01-02T22:59:05.412Z,57.85
2023-01-02T23:01:38.902Z,62.53
2023-01-02T23:04:28.196Z,66.38
2023-01-02T23:07:23.321Z,78.70
2023-01-02T23:09:49.323Z,71.50
2023-01-02T23:12:17.044Z,57.80
2023-01-02T23:14:45.346Z,69.13
2023-01-02T23:17:38.111Z,59.58
2023-01-02T23:20:06.453Z,63.88
2023-01-02T23:22:37.318Z,58.97
2023-01-02T23:25:07.418Z,60.92
2023-01-02T23:27:34.939Z,59.38
2023-01-02T23:30:02.873Z,63.28
2023-01-02T23:32:30.518Z,63.92
2023-01-02T23:35:00.428Z,61.33
2023-01-02T23:37:33.145Z,58.55
2023-01-02T23:40:06.083Z,52.28
2023-01-02T23:42:45.638Z,55.17
2023-01-02T23:45:12.970Z,57.58
2023-01-02T23:47:44.124Z,59.25
2023-01-02T23:50:11.745Z,70.38
2023-01-02T23:52:39.071Z,69.32
2023-01-02T23:55:11.151Z,67.88
2023-01-02T23:57:38.558Z,63.25
